EGDM

MoD Boscombe Down Airport

Amesbury, United Kingdom
METAR EGDM 181450Z 07009KT 9999 FEW026 SCT280 15/08 Q1026 BLU NOSIG
Observed Flight Rules
Oct-18 @ 14:50 UTC (an hour ago) Visual Flight Rules
Wind Visibility Clouds
70° at 9 knots 10,000+ meters
  • Few at 2,600' AGL
  • Scattered at 28,000' AGL
Temperatures Readings
Current 15°C / 59°F
Dewpoint 8°C / 46°F
Humidity 63%
Altimeter 30.3" Hg
Pressure 1026 hPa
Elevation 124
METAR EGDM 181450Z 07009KT 9999 FEW026 SCT280 15/08 Q1026 BLU NOSIG
Observed Flight Rules
Oct-18 @ 14:50 UTC
(an hour ago)
VFR
Wind Visibility
70° at 9 knots 10,000+ meters
Clouds
  • Few at 2,600' AGL
  • Scattered at 28,000' AGL
Temperature Dewpoint
15°C / 59°F 8°C / 46°F
Humidity Altimeter Pressure
63% 30.3" Hg 1026 hPa